createdAt,value
2023-04-20T00:00:44.327Z,100.00
2023-04-20T00:03:29.657Z,100.00
2023-04-20T00:06:15.690Z,100.00
2023-04-20T00:09:01.946Z,100.00
2023-04-20T00:11:47.381Z,100.00
2023-04-20T00:14:32.683Z,100.00
2023-04-20T00:17:18.069Z,100.00
2023-04-20T00:20:04.112Z,100.00
2023-04-20T00:22:49.356Z,100.00
2023-04-20T00:25:34.927Z,100.00
2023-04-20T00:28:20.281Z,100.00
2023-04-20T00:31:06.109Z,100.00
2023-04-20T00:33:51.496Z,100.00
2023-04-20T00:36:36.984Z,100.00
2023-04-20T00:39:22.556Z,100.00
2023-04-20T00:42:08.641Z,100.00
2023-04-20T00:44:54.272Z,100.00
2023-04-20T00:47:40.695Z,100.00
2023-04-20T00:50:26.748Z,100.00
2023-04-20T00:53:13.173Z,100.00
2023-04-20T00:55:58.598Z,100.00
2023-04-20T00:58:44.416Z,100.00
2023-04-20T01:01:30.086Z,100.00
2023-04-20T01:04:16.689Z,100.00
2023-04-20T01:07:02.874Z,100.00
2023-04-20T01:09:48.279Z,100.00
2023-04-20T01:12:33.970Z,100.00
2023-04-20T01:15:19.408Z,100.00
2023-04-20T01:18:06.997Z,100.00
2023-04-20T01:20:52.763Z,100.00
2023-04-20T01:23:39.377Z,100.00
2023-04-20T01:26:26.077Z,100.00
2023-04-20T01:29:11.722Z,100.00
2023-04-20T01:31:58.092Z,100.00
2023-04-20T01:34:44.153Z,100.00
2023-04-20T01:37:29.763Z,100.00
2023-04-20T01:40:16.352Z,100.00
2023-04-20T01:43:02.650Z,100.00
2023-04-20T01:45:48.539Z,100.00
2023-04-20T01:48:34.750Z,100.00
2023-04-20T01:51:20.514Z,100.00
2023-04-20T01:54:06.419Z,100.00
2023-04-20T01:56:53.222Z,100.00
2023-04-20T01:59:38.621Z,100.00
2023-04-20T02:02:24.714Z,100.00
2023-04-20T02:05:10.588Z,100.00
2023-04-20T02:07:56.269Z,100.00
2023-04-20T02:10:41.905Z,100.00
2023-04-20T02:13:28.051Z,100.00
2023-04-20T02:16:16.533Z,100.00
2023-04-20T02:19:03.202Z,100.00
2023-04-20T02:21:48.564Z,100.00
2023-04-20T02:24:33.971Z,100.00
2023-04-20T02:27:19.213Z,100.00
2023-04-20T02:30:05.495Z,100.00
2023-04-20T02:32:50.935Z,100.00
2023-04-20T02:35:36.766Z,100.00
2023-04-20T02:38:22.693Z,100.00
2023-04-20T02:41:08.610Z,100.00
2023-04-20T02:43:54.743Z,100.00
2023-04-20T02:46:40.039Z,100.00
2023-04-20T02:49:26.401Z,100.00
2023-04-20T02:52:12.228Z,100.00
2023-04-20T02:54:58.119Z,100.00
2023-04-20T02:57:43.768Z,100.00
2023-04-20T03:00:28.976Z,100.00
2023-04-20T03:03:21.772Z,100.00
2023-04-20T03:06:10.398Z,100.00
2023-04-20T03:08:56.706Z,100.00
2023-04-20T03:12:02.877Z,100.00
2023-04-20T03:15:08.686Z,100.00
2023-04-20T03:18:16.358Z,100.00
2023-04-20T03:21:02.364Z,100.00
2023-04-20T03:23:49.557Z,100.00
2023-04-20T03:26:36.616Z,100.00
2023-04-20T03:29:34.315Z,100.00
2023-04-20T03:32:19.801Z,100.00
2023-04-20T03:35:06.080Z,100.00
2023-04-20T03:37:51.417Z,100.00
2023-04-20T03:40:36.672Z,100.00
2023-04-20T03:43:23.247Z,100.00
2023-04-20T03:46:08.473Z,100.00
2023-04-20T03:48:53.854Z,100.00
2023-04-20T03:51:38.951Z,100.00
2023-04-20T03:54:24.893Z,100.00
2023-04-20T03:57:10.569Z,100.00
2023-04-20T03:59:56.942Z,100.00
2023-04-20T04:02:45.709Z,100.00
2023-04-20T04:05:33.264Z,100.00
2023-04-20T04:08:19.498Z,100.00
2023-04-20T04:11:05.302Z,100.00
2023-04-20T04:13:51.132Z,100.00
2023-04-20T04:16:36.853Z,100.00
2023-04-20T04:19:22.680Z,100.00
2023-04-20T04:22:08.447Z,100.00
2023-04-20T04:24:59.072Z,100.00
2023-04-20T04:27:46.578Z,100.00
2023-04-20T04:30:32.327Z,100.00
2023-04-20T04:33:19.178Z,100.00
2023-04-20T04:36:07.216Z,100.00
2023-04-20T04:38:53.392Z,100.00
2023-04-20T04:41:40.069Z,100.00
2023-04-20T04:44:35.887Z,100.00
2023-04-20T04:47:22.163Z,100.00
2023-04-20T04:50:09.419Z,100.00
2023-04-20T04:52:55.443Z,100.00
2023-04-20T04:55:40.914Z,100.00
2023-04-20T04:58:26.542Z,100.00
2023-04-20T05:01:12.054Z,100.00
2023-04-20T05:03:57.571Z,100.00
2023-04-20T05:06:43.217Z,100.00
2023-04-20T05:09:33.478Z,100.00
2023-04-20T05:12:19.376Z,100.00
2023-04-20T05:15:05.398Z,100.00
2023-04-20T05:17:51.186Z,100.00
2023-04-20T05:20:36.714Z,100.00
2023-04-20T05:23:22.024Z,100.00
2023-04-20T05:26:07.355Z,100.00
2023-04-20T05:28:52.600Z,100.00
2023-04-20T05:31:37.902Z,100.00
2023-04-20T05:34:23.147Z,100.00
2023-04-20T05:37:09.517Z,100.00
2023-04-20T05:39:54.600Z,100.00
2023-04-20T05:42:39.903Z,100.00
2023-04-20T05:45:25.087Z,100.00
2023-04-20T05:48:10.970Z,100.00
2023-04-20T05:50:56.230Z,100.00
2023-04-20T05:53:41.815Z,100.00
2023-04-20T05:56:27.523Z,100.00
2023-04-20T05:59:12.892Z,100.00
2023-04-20T06:01:58.086Z,100.00
2023-04-20T06:04:43.506Z,100.00
2023-04-20T06:07:28.893Z,100.00
2023-04-20T06:10:14.138Z,100.00
2023-04-20T06:12:59.500Z,100.00
2023-04-20T06:15:44.905Z,100.00
2023-04-20T06:18:30.017Z,100.00
2023-04-20T06:21:16.409Z,100.00
2023-04-20T06:24:01.680Z,100.00
2023-04-20T06:26:46.878Z,100.00
2023-04-20T06:29:32.131Z,100.00
2023-04-20T06:32:17.500Z,100.00
2023-04-20T06:35:04.443Z,100.00
2023-04-20T06:37:50.111Z,100.00
2023-04-20T06:40:35.400Z,100.00
2023-04-20T06:43:20.699Z,100.00
2023-04-20T06:46:05.946Z,100.00
2023-04-20T06:48:51.345Z,100.00
2023-04-20T06:51:36.915Z,100.00
2023-04-20T06:54:22.897Z,100.00
2023-04-20T06:57:08.346Z,100.00
2023-04-20T06:59:56.635Z,100.00
2023-04-20T07:02:42.654Z,100.00
2023-04-20T07:05:28.950Z,100.00
2023-04-20T07:08:16.160Z,100.00
2023-04-20T07:11:01.905Z,100.00
2023-04-20T07:13:47.189Z,100.00
2023-04-20T07:16:32.741Z,100.00
2023-04-20T07:19:18.180Z,100.00
2023-04-20T07:22:03.634Z,100.00
2023-04-20T07:24:49.247Z,100.00
2023-04-20T07:27:35.379Z,100.00
2023-04-20T07:30:20.853Z,100.00
2023-04-20T07:33:06.889Z,100.00
2023-04-20T07:35:52.377Z,100.00
2023-04-20T07:38:37.575Z,100.00
2023-04-20T07:41:26.024Z,100.00
2023-04-20T07:44:13.062Z,100.00
2023-04-20T07:46:58.318Z,100.00
2023-04-20T07:49:44.105Z,100.00
2023-04-20T07:52:29.512Z,100.00
2023-04-20T07:55:15.762Z,100.00
2023-04-20T07:58:01.255Z,100.00
2023-04-20T08:00:47.381Z,100.00
2023-04-20T08:03:33.826Z,100.00
2023-04-20T08:06:19.223Z,100.00
2023-04-20T08:09:05.258Z,100.00
2023-04-20T08:11:51.247Z,100.00
2023-04-20T08:14:38.282Z,100.00
2023-04-20T08:17:23.602Z,100.00
2023-04-20T08:20:09.296Z,100.00
2023-04-20T08:22:54.434Z,100.00
2023-04-20T08:25:41.166Z,100.00
2023-04-20T08:28:33.547Z,100.00
2023-04-20T08:31:19.710Z,100.00
2023-04-20T08:34:05.071Z,100.00
2023-04-20T08:36:51.168Z,100.00
2023-04-20T08:39:36.621Z,100.00
2023-04-20T08:42:22.138Z,100.00
2023-04-20T08:45:07.573Z,100.00
2023-04-20T08:47:53.418Z,100.00
2023-04-20T08:50:41.245Z,100.00
2023-04-20T08:53:26.646Z,100.00
2023-04-20T08:56:12.058Z,100.00
2023-04-20T08:58:57.285Z,100.00
2023-04-20T09:01:43.321Z,100.00
2023-04-20T09:04:29.066Z,100.00
2023-04-20T09:07:18.650Z,100.00
2023-04-20T09:10:03.980Z,100.00
2023-04-20T09:12:49.252Z,100.00
2023-04-20T09:15:34.624Z,100.00
2023-04-20T09:18:19.926Z,100.00
2023-04-20T09:21:09.061Z,100.00
2023-04-20T09:23:57.792Z,100.00
2023-04-20T09:26:43.037Z,100.00
2023-04-20T09:29:28.626Z,100.00
2023-04-20T09:32:21.898Z,100.00
2023-04-20T09:35:08.618Z,100.00
2023-04-20T09:37:54.552Z,100.00
2023-04-20T09:40:40.099Z,100.00
2023-04-20T09:43:27.725Z,100.00
2023-04-20T09:46:13.272Z,100.00
2023-04-20T09:49:00.617Z,100.00
2023-04-20T09:51:46.092Z,100.00
2023-04-20T09:54:31.897Z,100.00
2023-04-20T09:57:17.167Z,100.00
2023-04-20T10:00:02.547Z,100.00
2023-04-20T10:02:51.855Z,100.00
2023-04-20T10:05:39.613Z,100.00
2023-04-20T10:08:24.966Z,100.00
2023-04-20T10:11:10.603Z,100.00
2023-04-20T10:13:56.279Z,100.00
2023-04-20T10:16:41.882Z,100.00
2023-04-20T10:19:44.829Z,100.00
2023-04-20T10:22:33.917Z,100.00
2023-04-20T10:25:24.914Z,100.00
2023-04-20T10:28:11.023Z,100.00
2023-04-20T10:30:56.584Z,100.00
2023-04-20T10:33:54.799Z,100.00
2023-04-20T10:36:40.850Z,100.00
2023-04-20T10:39:27.715Z,100.00
2023-04-20T10:42:13.479Z,100.00
2023-04-20T10:44:59.702Z,100.00
2023-04-20T10:47:45.582Z,100.00
2023-04-20T10:50:30.891Z,100.00
2023-04-20T10:53:20.642Z,100.00
2023-04-20T10:56:06.206Z,100.00
2023-04-20T10:58:51.395Z,100.00
2023-04-20T11:01:36.804Z,100.00
2023-04-20T11:04:37.247Z,100.00
2023-04-20T11:07:22.624Z,100.00
2023-04-20T11:10:07.983Z,100.00
2023-04-20T11:12:53.310Z,100.00
2023-04-20T11:15:39.297Z,100.00
2023-04-20T11:18:24.834Z,100.00
2023-04-20T11:21:10.103Z,100.00
2023-04-20T11:23:55.357Z,100.00
2023-04-20T11:26:40.836Z,100.00
2023-04-20T11:29:30.381Z,100.00
2023-04-20T11:32:18.498Z,100.00
2023-04-20T11:35:07.832Z,100.00
2023-04-20T11:37:53.881Z,100.00
2023-04-20T11:40:39.502Z,100.00
2023-04-20T11:43:24.849Z,100.00
2023-04-20T11:46:17.388Z,100.00
2023-04-20T11:49:04.452Z,100.00
2023-04-20T11:51:50.272Z,100.00
2023-04-20T11:54:36.117Z,100.00
2023-04-20T11:57:23.986Z,100.00
2023-04-20T12:00:09.496Z,100.00
2023-04-20T12:03:02.377Z,100.00
2023-04-20T12:05:48.298Z,100.00
2023-04-20T12:08:34.245Z,100.00
2023-04-20T12:11:19.852Z,100.00
2023-04-20T12:14:05.414Z,100.00
2023-04-20T12:16:50.552Z,100.00
2023-04-20T12:19:35.960Z,100.00
2023-04-20T12:22:21.278Z,100.00
2023-04-20T12:25:06.945Z,100.00
2023-04-20T12:27:52.474Z,100.00
2023-04-20T12:30:37.691Z,100.00
2023-04-20T12:33:23.004Z,100.00
2023-04-20T12:36:08.414Z,100.00
2023-04-20T12:38:55.752Z,100.00
2023-04-20T12:41:41.363Z,100.00
2023-04-20T12:44:26.701Z,100.00
2023-04-20T12:47:13.728Z,100.00
2023-04-20T12:49:59.559Z,100.00
2023-04-20T12:52:44.889Z,100.00
2023-04-20T12:55:30.160Z,100.00
2023-04-20T12:58:16.243Z,100.00
2023-04-20T13:01:01.872Z,97.36
2023-04-20T13:03:47.982Z,100.00
2023-04-20T13:06:33.670Z,100.00
2023-04-20T13:09:18.916Z,100.00
2023-04-20T13:12:04.254Z,100.00
2023-04-20T13:14:49.413Z,100.00
2023-04-20T13:17:34.994Z,100.00
2023-04-20T13:20:20.148Z,100.00
2023-04-20T13:23:05.685Z,100.00
2023-04-20T13:25:52.177Z,100.00
2023-04-20T13:28:37.900Z,100.00
2023-04-20T13:31:23.286Z,100.00
2023-04-20T13:34:08.483Z,100.00
2023-04-20T13:36:53.889Z,100.00
2023-04-20T13:39:39.037Z,100.00
2023-04-20T13:42:24.511Z,100.00
2023-04-20T13:45:10.413Z,100.00
2023-04-20T13:47:55.744Z,100.00
2023-04-20T13:50:40.956Z,100.00
2023-04-20T13:53:26.208Z,100.00
2023-04-20T13:56:11.407Z,100.00
2023-04-20T13:58:57.056Z,100.00
2023-04-20T14:01:42.296Z,100.00
2023-04-20T14:04:28.069Z,100.00
2023-04-20T14:07:13.724Z,100.00
2023-04-20T14:10:02.362Z,100.00
2023-04-20T14:12:48.601Z,100.00
2023-04-20T14:15:34.764Z,99.20
2023-04-20T14:18:20.399Z,100.00
2023-04-20T14:21:05.889Z,100.00
2023-04-20T14:23:53.557Z,100.00
2023-04-20T14:26:39.376Z,100.00
2023-04-20T14:29:24.921Z,100.00
2023-04-20T14:32:10.385Z,100.00
2023-04-20T14:34:55.643Z,95.54
2023-04-20T14:37:41.373Z,97.71
2023-04-20T14:40:26.724Z,97.25
2023-04-20T14:43:11.966Z,98.12
2023-04-20T14:45:58.820Z,93.44
2023-04-20T14:48:47.352Z,93.37
2023-04-20T14:51:32.882Z,93.45
2023-04-20T14:54:21.553Z,96.68
2023-04-20T14:57:09.962Z,97.67
2023-04-20T15:00:05.999Z,98.28
2023-04-20T15:03:11.662Z,100.00
2023-04-20T15:06:03.415Z,100.00
2023-04-20T15:08:59.001Z,100.00
2023-04-20T15:11:48.008Z,100.00
2023-04-20T15:14:36.325Z,100.00
2023-04-20T15:17:21.635Z,100.00
2023-04-20T15:20:07.288Z,100.00
2023-04-20T15:22:58.520Z,100.00
2023-04-20T15:25:43.988Z,100.00
2023-04-20T15:28:29.347Z,100.00
2023-04-20T15:31:16.460Z,100.00
2023-04-20T15:34:02.076Z,100.00
2023-04-20T15:36:47.282Z,100.00
2023-04-20T15:39:32.698Z,100.00
2023-04-20T15:42:18.125Z,100.00
2023-04-20T15:45:04.173Z,100.00
2023-04-20T15:47:49.861Z,100.00
2023-04-20T15:50:35.968Z,100.00
2023-04-20T15:53:22.327Z,100.00
2023-04-20T15:56:07.728Z,100.00
2023-04-20T15:58:52.986Z,100.00
2023-04-20T16:01:38.341Z,100.00
2023-04-20T16:04:24.571Z,100.00
2023-04-20T16:07:10.379Z,100.00
2023-04-20T16:09:55.845Z,100.00
2023-04-20T16:12:41.188Z,100.00
2023-04-20T16:15:26.562Z,100.00
2023-04-20T16:18:11.801Z,100.00
2023-04-20T16:20:57.052Z,100.00
2023-04-20T16:23:42.120Z,100.00
2023-04-20T16:26:27.402Z,100.00
2023-04-20T16:29:12.931Z,100.00
2023-04-20T16:31:58.199Z,95.07
2023-04-20T16:34:43.505Z,95.21
2023-04-20T16:37:32.624Z,94.84
2023-04-20T16:40:21.254Z,92.98
2023-04-20T16:43:06.689Z,91.94
2023-04-20T16:45:52.500Z,92.21
2023-04-20T16:48:37.675Z,94.42
2023-04-20T16:51:22.894Z,98.08
2023-04-20T16:54:09.376Z,96.45
2023-04-20T16:56:55.012Z,98.67
2023-04-20T16:59:40.236Z,98.17
2023-04-20T17:02:26.363Z,99.71
2023-04-20T17:05:11.948Z,100.00
2023-04-20T17:07:57.022Z,100.00
2023-04-20T17:10:42.195Z,100.00
2023-04-20T17:13:27.594Z,100.00
2023-04-20T17:16:12.877Z,100.00
2023-04-20T17:18:58.621Z,99.94
2023-04-20T17:21:45.639Z,100.00
2023-04-20T17:24:30.921Z,100.00
2023-04-20T17:27:16.369Z,100.00
2023-04-20T17:30:02.201Z,100.00
2023-04-20T17:32:47.929Z,99.48
2023-04-20T17:35:33.296Z,98.85
2023-04-20T17:38:19.261Z,98.90
2023-04-20T17:41:04.988Z,100.00
2023-04-20T17:43:53.470Z,100.00
2023-04-20T17:46:38.945Z,99.84
2023-04-20T17:49:24.030Z,100.00
2023-04-20T17:52:12.579Z,100.00
2023-04-20T17:55:00.147Z,100.00
2023-04-20T17:57:45.441Z,100.00
2023-04-20T18:00:30.678Z,100.00
2023-04-20T18:03:16.595Z,100.00
2023-04-20T18:06:02.784Z,100.00
2023-04-20T18:08:48.088Z,100.00
2023-04-20T18:11:33.553Z,100.00
2023-04-20T18:14:19.309Z,100.00
2023-04-20T18:17:04.702Z,100.00
2023-04-20T18:19:49.994Z,100.00
2023-04-20T18:22:36.816Z,100.00
2023-04-20T18:25:22.871Z,100.00
2023-04-20T18:28:07.956Z,100.00
2023-04-20T18:30:55.658Z,100.00
2023-04-20T18:33:41.555Z,100.00
2023-04-20T18:36:27.071Z,100.00
2023-04-20T18:39:12.328Z,100.00
2023-04-20T18:41:57.507Z,100.00
2023-04-20T18:44:42.854Z,100.00
2023-04-20T18:47:29.676Z,100.00
2023-04-20T18:50:15.407Z,100.00
2023-04-20T18:53:00.804Z,100.00
2023-04-20T18:55:46.632Z,100.00
2023-04-20T18:58:32.331Z,100.00
2023-04-20T19:01:17.892Z,100.00
2023-04-20T19:04:03.584Z,100.00
2023-04-20T19:06:49.318Z,100.00
2023-04-20T19:09:34.629Z,100.00
2023-04-20T19:12:19.977Z,100.00
2023-04-20T19:15:06.194Z,100.00
2023-04-20T19:17:52.974Z,100.00
2023-04-20T19:20:38.526Z,100.00
2023-04-20T19:23:24.055Z,100.00
2023-04-20T19:26:09.676Z,100.00
2023-04-20T19:28:56.458Z,100.00
2023-04-20T19:31:42.301Z,100.00
2023-04-20T19:34:27.942Z,100.00
2023-04-20T19:37:13.219Z,100.00
2023-04-20T19:39:58.520Z,100.00
2023-04-20T19:42:43.974Z,100.00
2023-04-20T19:45:29.181Z,100.00
2023-04-20T19:48:14.739Z,100.00
2023-04-20T19:51:01.010Z,100.00
2023-04-20T19:53:46.710Z,100.00
2023-04-20T19:56:32.461Z,100.00
2023-04-20T19:59:18.277Z,100.00
2023-04-20T20:02:04.196Z,100.00
2023-04-20T20:04:49.980Z,100.00
2023-04-20T20:07:35.832Z,100.00
2023-04-20T20:10:21.446Z,100.00
2023-04-20T20:13:06.906Z,100.00
2023-04-20T20:15:53.780Z,100.00
2023-04-20T20:18:39.596Z,100.00
2023-04-20T20:21:24.894Z,100.00
2023-04-20T20:24:10.273Z,100.00
2023-04-20T20:26:55.488Z,100.00
2023-04-20T20:29:40.837Z,100.00
2023-04-20T20:32:26.200Z,100.00
2023-04-20T20:35:13.072Z,100.00
2023-04-20T20:37:58.621Z,100.00
2023-04-20T20:40:44.004Z,100.00
2023-04-20T20:43:31.586Z,100.00
2023-04-20T20:46:17.262Z,100.00
2023-04-20T20:49:03.126Z,100.00
2023-04-20T20:51:48.549Z,100.00
2023-04-20T20:54:33.959Z,100.00
2023-04-20T20:57:19.112Z,100.00
2023-04-20T21:00:10.441Z,100.00
2023-04-20T21:02:57.394Z,100.00
2023-04-20T21:05:42.991Z,100.00
2023-04-20T21:08:28.150Z,100.00
2023-04-20T21:11:13.727Z,100.00
2023-04-20T21:14:02.096Z,100.00
2023-04-20T21:16:47.676Z,100.00
2023-04-20T21:19:33.133Z,100.00
2023-04-20T21:22:20.185Z,100.00
2023-04-20T21:25:05.789Z,100.00
2023-04-20T21:27:51.127Z,100.00
2023-04-20T21:30:36.468Z,100.00
2023-04-20T21:33:21.769Z,100.00
2023-04-20T21:36:06.979Z,100.00
2023-04-20T21:38:52.447Z,100.00
2023-04-20T21:41:37.665Z,100.00
2023-04-20T21:44:23.115Z,100.00
2023-04-20T21:47:08.351Z,100.00
2023-04-20T21:49:53.617Z,100.00
2023-04-20T21:52:38.925Z,100.00
2023-04-20T21:55:24.284Z,100.00
2023-04-20T21:58:09.617Z,100.00
2023-04-20T22:00:54.915Z,100.00
2023-04-20T22:03:40.384Z,100.00
2023-04-20T22:06:25.929Z,100.00
2023-04-20T22:09:11.518Z,100.00
2023-04-20T22:11:57.780Z,100.00
2023-04-20T22:14:43.232Z,100.00
2023-04-20T22:17:29.881Z,100.00
2023-04-20T22:20:16.791Z,100.00
2023-04-20T22:23:02.426Z,100.00
2023-04-20T22:25:47.972Z,100.00
2023-04-20T22:28:33.410Z,100.00
2023-04-20T22:31:18.767Z,100.00
2023-04-20T22:34:04.429Z,100.00
2023-04-20T22:36:49.671Z,100.00
2023-04-20T22:39:35.159Z,100.00
2023-04-20T22:42:20.320Z,100.00
2023-04-20T22:45:06.069Z,100.00
2023-04-20T22:47:51.338Z,100.00
2023-04-20T22:50:36.561Z,100.00
2023-04-20T22:53:21.736Z,100.00
2023-04-20T22:56:07.673Z,100.00
2023-04-20T22:58:52.736Z,100.00
2023-04-20T23:01:38.340Z,100.00
2023-04-20T23:04:24.112Z,100.00
2023-04-20T23:07:10.050Z,100.00
2023-04-20T23:09:56.604Z,100.00
2023-04-20T23:12:43.070Z,100.00
2023-04-20T23:15:28.387Z,100.00
2023-04-20T23:18:13.753Z,100.00
2023-04-20T23:20:59.022Z,100.00
2023-04-20T23:23:44.121Z,100.00
2023-04-20T23:26:29.578Z,100.00
2023-04-20T23:29:16.519Z,100.00
2023-04-20T23:32:02.427Z,100.00
2023-04-20T23:34:48.115Z,100.00
2023-04-20T23:37:33.413Z,100.00
2023-04-20T23:40:18.746Z,100.00
2023-04-20T23:43:04.073Z,100.00
2023-04-20T23:45:49.586Z,100.00
2023-04-20T23:48:34.849Z,100.00
2023-04-20T23:51:20.358Z,100.00
2023-04-20T23:54:05.989Z,100.00
2023-04-20T23:56:51.481Z,100.00
2023-04-20T23:59:36.731Z,100.00
